Time;durP1;ratioP1;P1;durP2;ratioP2;P2;SDS_P1;SDS_P2;PMS_P1;PMS_P2;Temp;Humidity;BMP_temperature;BMP_pressure;BME280_temperature;BME280_humidity;BME280_pressure;Samples;Min_cycle;Max_cycle;Signal;HPM_P1;HPM_P2
2022/07/22 00:00:57;;;;;;;6.40;5.13;;;21.00;99.90;;;;;;5014372;28;20956;-71
2022/07/22 00:03:23;;;;;;;5.10;4.17;;;21.00;99.90;;;;;;5014102;28;20215;-73
2022/07/22 00:05:48;;;;;;;4.93;4.53;;;21.00;99.90;;;;;;5011809;28;20175;-72
2022/07/22 00:08:14;;;;;;;5.07;4.60;;;21.00;99.90;;;;;;5012850;28;20638;-72
2022/07/22 00:10:40;;;;;;;5.10;4.60;;;21.00;99.90;;;;;;5013146;28;20329;-72
2022/07/22 00:13:06;;;;;;;4.77;4.30;;;21.00;99.90;;;;;;5013245;28;20189;-72
2022/07/22 00:15:31;;;;;;;5.87;5.33;;;21.00;99.90;;;;;;5013317;28;20829;-72
2022/07/22 00:17:57;;;;;;;5.17;4.40;;;21.00;99.90;;;;;;5014330;28;20176;-73
2022/07/22 00:20:22;;;;;;;4.83;4.40;;;21.10;99.90;;;;;;5018725;28;20243;-73
2022/07/22 00:22:48;;;;;;;4.80;4.40;;;21.10;99.90;;;;;;5014077;28;20183;-73
2022/07/22 00:25:13;;;;;;;6.07;4.77;;;21.10;99.90;;;;;;5013018;28;20174;-72
2022/07/22 00:27:39;;;;;;;5.30;4.63;;;21.10;99.90;;;;;;5013010;28;20186;-72
2022/07/22 00:30:05;;;;;;;4.17;3.77;;;21.10;99.90;;;;;;5013091;28;20218;-72
2022/07/22 00:32:31;;;;;;;4.83;3.33;;;21.10;99.90;;;;;;5011361;28;20620;-73
2022/07/22 00:34:56;;;;;;;4.90;4.07;;;21.10;99.90;;;;;;5012494;28;20437;-72
2022/07/22 00:37:22;;;;;;;4.40;4.00;;;21.00;99.90;;;;;;5011001;28;20513;-72
2022/07/22 00:39:50;;;;;;;6.10;4.27;;;21.00;99.90;;;;;;5012394;28;20233;-72
2022/07/22 00:42:16;;;;;;;4.40;4.00;;;21.10;99.90;;;;;;5012049;28;20198;-72
2022/07/22 00:44:42;;;;;;;4.20;3.80;;;21.00;99.90;;;;;;5012031;28;20418;-72
2022/07/22 00:47:07;;;;;;;4.07;3.77;;;21.00;99.90;;;;;;5012243;28;20405;-74
2022/07/22 00:49:33;;;;;;;5.00;3.83;;;21.00;99.90;;;;;;5011849;28;20665;-72
2022/07/22 00:51:59;;;;;;;5.03;4.53;;;21.10;99.90;;;;;;5011840;28;20232;-72
2022/07/22 00:54:24;;;;;;;5.13;3.77;;;21.00;99.90;;;;;;5012058;28;20254;-72
2022/07/22 00:56:50;;;;;;;4.13;3.83;;;21.00;99.90;;;;;;5012080;28;20183;-72
2022/07/22 00:59:16;;;;;;;6.30;3.90;;;21.00;99.90;;;;;;5012055;28;20575;-72
2022/07/22 01:01:42;;;;;;;4.27;3.87;;;21.00;99.90;;;;;;5013543;28;20586;-72
2022/07/22 01:04:08;;;;;;;4.67;3.57;;;20.90;99.90;;;;;;5013579;28;20411;-72
2022/07/22 01:06:33;;;;;;;3.87;3.57;;;20.90;99.90;;;;;;5012943;28;20177;-73
2022/07/22 01:08:59;;;;;;;4.70;4.20;;;20.80;99.90;;;;;;5011997;28;20496;-72
2022/07/22 01:11:25;;;;;;;4.03;3.73;;;20.90;99.90;;;;;;5012122;28;20191;-73
2022/07/22 01:13:52;;;;;;;3.87;3.50;;;20.90;99.90;;;;;;5010961;28;20182;-73
2022/07/22 01:16:18;;;;;;;3.40;3.07;;;20.90;99.90;;;;;;5012006;28;20487;-73
2022/07/22 01:18:45;;;;;;;4.20;3.27;;;20.80;99.90;;;;;;5011802;28;20424;-72
2022/07/22 01:21:11;;;;;;;4.17;3.83;;;20.80;99.90;;;;;;5011827;28;20191;-73
2022/07/22 01:23:39;;;;;;;4.30;3.90;;;20.80;99.90;;;;;;5012338;28;20412;-73
2022/07/22 01:26:05;;;;;;;3.67;3.30;;;20.80;99.90;;;;;;5011842;28;20853;-73
2022/07/22 01:28:32;;;;;;;3.67;3.37;;;20.70;99.90;;;;;;5011923;28;20494;-73
2022/07/22 01:30:57;;;;;;;3.13;2.90;;;20.70;99.90;;;;;;5012214;28;20191;-73
2022/07/22 01:33:23;;;;;;;3.47;3.17;;;20.60;99.90;;;;;;5011946;28;20416;-73
2022/07/22 01:35:50;;;;;;;4.03;3.73;;;20.60;99.90;;;;;;5012071;28;20225;-73
2022/07/22 01:38:16;;;;;;;3.50;3.13;;;20.60;99.90;;;;;;5012462;28;20421;-73
2022/07/22 01:40:43;;;;;;;4.23;3.73;;;20.60;99.90;;;;;;5012043;28;20796;-73
2022/07/22 01:43:10;;;;;;;3.67;3.30;;;20.50;99.90;;;;;;5012310;28;20186;-73
2022/07/22 01:45:35;;;;;;;3.90;3.50;;;20.50;99.90;;;;;;5011935;28;20412;-73
2022/07/22 01:48:01;;;;;;;3.47;3.17;;;20.60;99.90;;;;;;5011844;28;20410;-73
2022/07/22 01:50:27;;;;;;;3.20;2.90;;;20.50;99.90;;;;;;5011941;28;20200;-73
2022/07/22 01:52:53;;;;;;;2.80;2.60;;;20.40;99.90;;;;;;5011702;28;20413;-73
2022/07/22 01:55:19;;;;;;;2.90;2.70;;;20.40;99.90;;;;;;5011823;28;20205;-73
2022/07/22 01:57:44;;;;;;;3.27;3.00;;;20.40;99.90;;;;;;5011876;28;20310;-74
2022/07/22 02:00:11;;;;;;;3.70;3.40;;;20.30;99.90;;;;;;5011757;28;20259;-73
2022/07/22 02:02:37;;;;;;;3.43;3.10;;;20.30;99.90;;;;;;5012196;28;20663;-73
2022/07/22 02:05:05;;;;;;;6.33;3.67;;;20.30;99.90;;;;;;5013283;28;20461;-73
2022/07/22 02:07:30;;;;;;;3.73;3.30;;;20.30;99.90;;;;;;5020888;28;20182;-72
2022/07/22 02:09:56;;;;;;;3.40;3.10;;;20.20;99.90;;;;;;5014189;28;20844;-72
2022/07/22 02:12:22;;;;;;;3.73;3.33;;;20.20;99.90;;;;;;5010748;28;20284;-73
2022/07/22 02:14:48;;;;;;;5.27;3.67;;;20.20;99.90;;;;;;5011811;28;20607;-73
2022/07/22 02:17:14;;;;;;;4.23;3.17;;;20.20;99.90;;;;;;5011992;28;20444;-73
2022/07/22 02:19:40;;;;;;;4.83;3.60;;;20.10;99.90;;;;;;5015149;28;20557;-73
2022/07/22 02:22:06;;;;;;;4.40;3.80;;;20.10;99.90;;;;;;5016326;28;20435;-73
2022/07/22 02:24:31;;;;;;;3.40;3.10;;;20.00;99.90;;;;;;5016105;28;20477;-73
2022/07/22 02:26:57;;;;;;;5.10;4.40;;;20.00;99.90;;;;;;5015794;28;20415;-72
2022/07/22 02:29:22;;;;;;;4.10;3.70;;;20.00;99.90;;;;;;5017121;28;20223;-73
2022/07/22 02:31:48;;;;;;;3.87;3.57;;;20.00;99.90;;;;;;5018621;28;20204;-74
2022/07/22 02:34:14;;;;;;;4.27;3.73;;;20.00;99.90;;;;;;5015782;28;20165;-72
2022/07/22 02:36:39;;;;;;;4.07;3.70;;;19.90;99.90;;;;;;5014494;28;20640;-74
2022/07/22 02:39:05;;;;;;;6.10;3.83;;;19.90;99.90;;;;;;5014486;28;20177;-73
2022/07/22 02:41:30;;;;;;;4.90;4.07;;;19.80;99.90;;;;;;5014451;28;20191;-72
2022/07/22 02:43:56;;;;;;;4.63;4.20;;;19.80;99.90;;;;;;5014517;28;20173;-73
2022/07/22 02:46:23;;;;;;;7.73;5.47;;;19.80;99.90;;;;;;5014367;28;20229;-73
2022/07/22 02:48:48;;;;;;;6.47;4.50;;;19.80;99.90;;;;;;5014141;28;20205;-72
2022/07/22 02:51:14;;;;;;;5.03;4.00;;;19.70;99.90;;;;;;5014127;28;20425;-73
2022/07/22 02:53:39;;;;;;;5.07;4.53;;;19.80;99.90;;;;;;5012903;28;20174;-73
2022/07/22 02:56:05;;;;;;;6.67;4.70;;;19.80;99.90;;;;;;5015070;28;20178;-73
2022/07/22 02:58:31;;;;;;;5.00;4.33;;;19.70;99.90;;;;;;5015138;28;20646;-73
2022/07/22 03:00:57;;;;;;;5.60;5.07;;;19.70;99.90;;;;;;5014496;28;20320;-73
2022/07/22 03:03:23;;;;;;;8.00;6.67;;;19.70;99.90;;;;;;5015251;28;20920;-73
2022/07/22 03:05:49;;;;;;;5.43;4.37;;;19.70;99.90;;;;;;5014793;28;20178;-73
2022/07/22 03:08:15;;;;;;;5.33;4.87;;;19.60;99.90;;;;;;5014230;28;20453;-73
2022/07/22 03:10:41;;;;;;;7.60;5.20;;;19.60;99.90;;;;;;5013986;28;20246;-73
2022/07/22 03:13:07;;;;;;;4.73;4.33;;;19.60;99.90;;;;;;5014181;28;20412;-73
2022/07/22 03:15:32;;;;;;;5.10;4.60;;;19.60;99.90;;;;;;5014511;28;20167;-73
2022/07/22 03:17:58;;;;;;;4.77;4.10;;;19.60;99.90;;;;;;5014039;28;20172;-73
2022/07/22 03:20:23;;;;;;;8.50;5.00;;;19.50;99.90;;;;;;5013823;28;20209;-73
2022/07/22 03:22:49;;;;;;;6.20;5.50;;;19.50;99.90;;;;;;5013896;28;20176;-73
2022/07/22 03:25:14;;;;;;;5.10;4.60;;;19.40;99.90;;;;;;5014249;28;20172;-73
2022/07/22 03:27:40;;;;;;;5.77;5.07;;;19.40;99.90;;;;;;5014030;28;20487;-73
2022/07/22 03:30:06;;;;;;;6.03;5.40;;;19.40;99.90;;;;;;5013147;28;20204;-73
2022/07/22 03:32:31;;;;;;;7.63;5.87;;;19.30;99.90;;;;;;5013815;28;20173;-73
2022/07/22 03:34:57;;;;;;;5.17;4.47;;;19.30;99.90;;;;;;5013868;28;20546;-73
2022/07/22 03:37:23;;;;;;;5.43;4.80;;;19.30;99.90;;;;;;5013634;28;20177;-73
2022/07/22 03:39:48;;;;;;;5.23;4.73;;;19.40;99.90;;;;;;5013300;28;20172;-72
2022/07/22 03:42:14;;;;;;;7.47;5.57;;;19.30;99.90;;;;;;5013325;28;20205;-73
2022/07/22 03:44:40;;;;;;;7.10;5.90;;;19.30;99.90;;;;;;5013149;28;20376;-73
2022/07/22 03:47:05;;;;;;;7.87;5.80;;;19.30;99.90;;;;;;5013492;28;20225;-73
2022/07/22 03:49:31;;;;;;;5.63;5.10;;;19.30;99.90;;;;;;5013554;28;20459;-73
2022/07/22 03:51:57;;;;;;;7.23;6.50;;;19.30;99.90;;;;;;5015127;28;20185;-73
2022/07/22 03:54:23;;;;;;;6.27;5.67;;;19.30;99.90;;;;;;5021119;28;20186;-74
2022/07/22 03:56:48;;;;;;;5.30;4.80;;;19.40;99.90;;;;;;5014421;28;20789;-73
2022/07/22 03:59:15;;;;;;;7.53;6.53;;;19.40;99.90;;;;;;5013350;28;20635;-73
2022/07/22 04:01:41;;;;;;;6.30;5.57;;;19.50;99.90;;;;;;5013107;28;20211;-74
2022/07/22 04:04:07;;;;;;;5.80;4.87;;;19.50;99.90;;;;;;5013113;28;20882;-72
2022/07/22 04:06:32;;;;;;;6.03;5.27;;;19.50;99.90;;;;;;5012673;28;20650;-72
2022/07/22 04:08:58;;;;;;;7.23;5.30;;;19.60;99.90;;;;;;5012973;28;20201;-72
2022/07/22 04:11:24;;;;;;;7.80;5.87;;;19.60;99.90;;;;;;5012814;28;20220;-73
2022/07/22 04:13:49;;;;;;;6.93;6.10;;;19.60;99.90;;;;;;5012964;28;20180;-72
2022/07/22 04:16:15;;;;;;;6.30;5.67;;;19.50;99.90;;;;;;5012815;28;20224;-72
2022/07/22 04:18:41;;;;;;;5.77;5.17;;;19.60;99.90;;;;;;5012900;28;20548;-72
2022/07/22 04:21:06;;;;;;;6.97;5.57;;;19.60;99.90;;;;;;5012492;28;20219;-74
2022/07/22 04:23:32;;;;;;;6.83;6.10;;;19.70;99.90;;;;;;5012575;28;20209;-72
2022/07/22 04:25:57;;;;;;;7.30;6.40;;;19.70;99.90;;;;;;5012466;28;20183;-72
2022/07/22 04:28:23;;;;;;;5.97;4.67;;;19.70;99.90;;;;;;5012570;28;20286;-72
2022/07/22 04:30:49;;;;;;;7.63;6.47;;;19.60;99.90;;;;;;5012819;28;20233;-72
2022/07/22 04:33:14;;;;;;;7.97;6.20;;;19.60;99.90;;;;;;5012438;28;20237;-72
2022/07/22 04:35:40;;;;;;;6.87;6.23;;;19.60;99.90;;;;;;5012319;28;20628;-72
2022/07/22 04:38:05;;;;;;;5.37;4.83;;;19.70;99.90;;;;;;5012379;28;20184;-72
2022/07/22 04:40:31;;;;;;;8.50;7.07;;;19.80;99.90;;;;;;5012117;28;20194;-72
2022/07/22 04:42:56;;;;;;;7.90;6.50;;;19.80;99.90;;;;;;5011954;28;20198;-72
2022/07/22 04:45:22;;;;;;;9.17;6.30;;;19.70;99.90;;;;;;5012254;28;20213;-73
2022/07/22 04:47:48;;;;;;;6.70;6.00;;;19.70;99.90;;;;;;5012221;28;20166;-72
2022/07/22 04:50:13;;;;;;;8.33;6.80;;;19.60;99.90;;;;;;5012137;28;20246;-72
2022/07/22 04:52:39;;;;;;;5.80;5.10;;;19.60;99.90;;;;;;5012076;28;20180;-73
2022/07/22 04:55:05;;;;;;;7.47;6.73;;;19.70;99.90;;;;;;5012095;28;20222;-73
2022/07/22 04:57:31;;;;;;;8.50;6.37;;;19.80;99.90;;;;;;5012153;28;20175;-73
2022/07/22 04:59:56;;;;;;;6.90;6.20;;;19.80;99.90;;;;;;5012015;28;20440;-72
2022/07/22 05:02:22;;;;;;;9.90;7.33;;;19.80;99.90;;;;;;5011813;28;20208;-73
2022/07/22 05:04:47;;;;;;;6.37;5.73;;;19.70;99.90;;;;;;5012039;28;20172;-73
2022/07/22 05:07:13;;;;;;;8.00;6.80;;;19.70;99.90;;;;;;5014897;28;20711;-73
2022/07/22 05:09:39;;;;;;;7.87;6.60;;;19.80;99.90;;;;;;5013505;28;20370;-73
2022/07/22 05:12:04;;;;;;;12.30;7.70;;;19.90;99.90;;;;;;5012625;28;20244;-73
2022/07/22 05:14:30;;;;;;;8.60;5.70;;;19.90;99.90;;;;;;5013341;28;20198;-73
2022/07/22 05:16:56;;;;;;;9.83;7.77;;;19.80;99.90;;;;;;5012270;28;20171;-73
2022/07/22 05:19:21;;;;;;;8.20;6.77;;;19.80;99.90;;;;;;5011868;28;20213;-73
2022/07/22 05:21:47;;;;;;;7.37;6.67;;;20.10;99.90;;;;;;5011860;28;20193;-73
2022/07/22 05:24:13;;;;;;;9.57;7.57;;;20.20;99.90;;;;;;5011955;28;20672;-74
2022/07/22 05:26:38;;;;;;;7.90;6.10;;;20.30;99.90;;;;;;5011745;28;20182;-74
2022/07/22 05:29:04;;;;;;;6.87;6.23;;;20.20;99.90;;;;;;5012145;28;20507;-74
2022/07/22 05:31:30;;;;;;;8.17;7.10;;;20.20;99.90;;;;;;5013165;28;20187;-73
2022/07/22 05:33:56;;;;;;;7.80;5.83;;;20.30;99.90;;;;;;5013496;28;20173;-74
2022/07/22 05:36:21;;;;;;;7.20;6.50;;;20.60;99.90;;;;;;5013013;28;20167;-74
2022/07/22 05:38:47;;;;;;;7.23;6.10;;;20.50;99.90;;;;;;5012979;28;20535;-74
2022/07/22 05:41:12;;;;;;;6.37;5.77;;;20.30;99.90;;;;;;5019572;28;20199;-73
2022/07/22 05:43:38;;;;;;;10.07;6.93;;;20.40;99.90;;;;;;5012695;28;20638;-73
2022/07/22 05:46:04;;;;;;;7.83;6.00;;;20.10;99.90;;;;;;5011501;28;20176;-73
2022/07/22 05:48:29;;;;;;;7.00;6.30;;;20.20;99.90;;;;;;5011467;28;20209;-73
2022/07/22 05:50:55;;;;;;;7.53;6.70;;;20.40;99.90;;;;;;5011255;28;20201;-73
2022/07/22 05:53:20;;;;;;;6.30;5.70;;;20.70;99.90;;;;;;5011594;28;20219;-73
2022/07/22 05:55:46;;;;;;;8.33;7.00;;;20.70;99.90;;;;;;5015249;28;20174;-73
2022/07/22 05:58:11;;;;;;;6.13;5.50;;;20.70;99.90;;;;;;5015209;28;20221;-73
2022/07/22 06:00:39;;;;;;;6.40;5.80;;;20.90;99.90;;;;;;5015039;28;20566;-73
2022/07/22 06:03:05;;;;;;;6.97;6.27;;;20.90;99.90;;;;;;5015154;28;20165;-73
2022/07/22 06:05:31;;;;;;;10.07;6.47;;;20.70;99.90;;;;;;5014813;28;20435;-73
2022/07/22 06:07:56;;;;;;;6.40;5.70;;;21.10;99.90;;;;;;5015287;28;20437;-73
2022/07/22 06:10:22;;;;;;;8.00;7.17;;;21.40;99.90;;;;;;5014973;28;20217;-74
2022/07/22 06:12:48;;;;;;;7.23;5.70;;;21.40;99.90;;;;;;5014881;28;20167;-73
2022/07/22 06:15:13;;;;;;;5.80;5.20;;;21.30;99.90;;;;;;5014909;28;20165;-74
2022/07/22 06:17:39;;;;;;;5.17;4.67;;;21.70;99.90;;;;;;5015000;28;20254;-74
2022/07/22 06:20:05;;;;;;;7.33;6.47;;;21.70;99.90;;;;;;5015270;28;20653;-74
2022/07/22 06:22:31;;;;;;;5.83;5.10;;;21.90;99.90;;;;;;5014958;28;20179;-73
2022/07/22 06:24:57;;;;;;;8.30;6.70;;;21.70;99.90;;;;;;5015359;28;20451;-73
2022/07/22 06:27:22;;;;;;;6.33;4.90;;;22.00;99.90;;;;;;5015760;28;20224;-73
2022/07/22 06:29:48;;;;;;;6.70;6.10;;;22.00;99.90;;;;;;5014892;28;20242;-74
2022/07/22 06:32:13;;;;;;;6.00;5.40;;;21.70;99.90;;;;;;5014774;28;20554;-74
2022/07/22 06:34:39;;;;;;;6.87;5.90;;;21.90;99.90;;;;;;5014648;28;20203;-74
2022/07/22 06:37:05;;;;;;;7.53;5.70;;;22.20;99.90;;;;;;5014621;28;20166;-74
2022/07/22 06:39:30;;;;;;;7.63;6.33;;;22.10;99.90;;;;;;5014823;28;20180;-74
2022/07/22 06:41:56;;;;;;;7.80;6.10;;;21.70;99.90;;;;;;5014732;28;20247;-74
2022/07/22 06:44:21;;;;;;;5.70;5.13;;;21.90;99.90;;;;;;5014340;28;20212;-74
2022/07/22 06:46:47;;;;;;;8.23;6.03;;;21.80;99.90;;;;;;5014412;28;20180;-74
2022/07/22 06:49:13;;;;;;;7.80;6.27;;;22.00;99.90;;;;;;5014297;28;20204;-74
2022/07/22 06:51:38;;;;;;;6.63;5.70;;;22.40;99.90;;;;;;5014398;28;20242;-74
2022/07/22 06:54:04;;;;;;;6.80;6.10;;;22.40;99.90;;;;;;5014424;28;20171;-74
2022/07/22 06:56:29;;;;;;;6.50;5.67;;;22.20;99.90;;;;;;5014367;28;20706;-74
2022/07/22 06:58:55;;;;;;;6.13;5.53;;;22.00;99.90;;;;;;5014199;28;20195;-74
2022/07/22 07:01:21;;;;;;;5.73;5.20;;;22.20;99.90;;;;;;5015570;28;20259;-74
2022/07/22 07:03:46;;;;;;;7.10;6.40;;;22.10;99.90;;;;;;5016421;28;20184;-73
2022/07/22 07:06:12;;;;;;;6.83;6.23;;;22.00;99.90;;;;;;5016292;28;20253;-74
2022/07/22 07:08:39;;;;;;;6.30;5.70;;;22.00;99.90;;;;;;5015224;28;20200;-73
2022/07/22 07:11:05;;;;;;;6.00;5.43;;;21.90;99.90;;;;;;5015534;28;20195;-74
2022/07/22 07:13:30;;;;;;;6.43;5.40;;;22.70;99.90;;;;;;5015839;28;20501;-73
2022/07/22 07:15:56;;;;;;;5.80;4.87;;;23.00;99.90;;;;;;5015939;28;20592;-74
2022/07/22 07:18:22;;;;;;;6.07;5.20;;;23.40;99.90;;;;;;5016057;28;20278;-74
2022/07/22 07:20:48;;;;;;;5.60;4.77;;;23.30;99.90;;;;;;5015976;28;20443;-74
2022/07/22 07:23:14;;;;;;;5.80;5.30;;;23.90;99.90;;;;;;5016377;28;20164;-74
2022/07/22 07:25:40;;;;;;;6.00;5.40;;;23.20;99.90;;;;;;5016884;28;20407;-74
2022/07/22 07:28:06;;;;;;;5.93;5.37;;;23.30;99.90;;;;;;5024339;28;20445;-73
2022/07/22 07:30:31;;;;;;;9.83;5.47;;;24.00;99.90;;;;;;5016346;28;20442;-73
2022/07/22 07:32:57;;;;;;;5.80;5.27;;;24.00;99.90;;;;;;5015519;28;20170;-73
2022/07/22 07:35:23;;;;;;;5.93;5.07;;;24.00;99.90;;;;;;5015518;28;20170;-73
2022/07/22 07:37:48;;;;;;;5.27;4.57;;;23.40;99.90;;;;;;5015243;28;20179;-73
2022/07/22 07:40:14;;;;;;;4.80;4.30;;;23.10;99.90;;;;;;5015190;28;20206;-73
2022/07/22 07:42:40;;;;;;;5.67;5.17;;;23.20;99.90;;;;;;5014711;28;20176;-72
2022/07/22 07:45:06;;;;;;;4.70;4.30;;;24.50;99.90;;;;;;5015351;28;20911;-73
2022/07/22 07:47:32;;;;;;;6.50;4.30;;;25.30;99.90;;;;;;5015058;28;20194;-73
2022/07/22 07:50:00;;;;;;;4.17;3.80;;;25.60;99.90;;;;;;5014950;28;21047;-72
2022/07/22 07:52:25;;;;;;;3.53;3.23;;;25.50;99.90;;;;;;5015016;28;20172;-72
2022/07/22 07:54:51;;;;;;;4.20;3.80;;;25.70;99.90;;;;;;5014786;28;20773;-73
2022/07/22 07:57:17;;;;;;;4.90;4.50;;;26.00;99.90;;;;;;5014693;28;20176;-73
2022/07/22 07:59:43;;;;;;;4.43;4.10;;;25.30;99.90;;;;;;5013017;28;20184;-73
2022/07/22 08:02:08;;;;;;;3.50;3.30;;;26.50;99.90;;;;;;5012855;28;20465;-73
2022/07/22 08:04:35;;;;;;;3.70;2.97;;;26.90;99.90;;;;;;5012976;28;20176;-73
2022/07/22 08:07:01;;;;;;;3.87;3.57;;;26.40;99.90;;;;;;5013218;28;20173;-74
2022/07/22 08:09:26;;;;;;;3.70;3.40;;;26.00;99.90;;;;;;5012886;28;21115;-73
2022/07/22 08:11:52;;;;;;;3.67;3.37;;;25.50;99.90;;;;;;5011610;28;20207;-73
2022/07/22 08:14:18;;;;;;;3.40;3.10;;;25.10;99.90;;;;;;5012918;28;20175;-73
2022/07/22 08:16:44;;;;;;;3.87;3.57;;;25.20;99.90;;;;;;5012241;28;20254;-73
2022/07/22 08:19:09;;;;;;;5.57;4.23;;;25.30;99.90;;;;;;5013090;28;20834;-73
2022/07/22 08:21:35;;;;;;;4.70;4.30;;;24.80;99.90;;;;;;5012863;28;20254;-73
2022/07/22 08:24:00;;;;;;;4.57;3.30;;;25.20;99.90;;;;;;5012704;28;20180;-73
2022/07/22 08:26:26;;;;;;;3.23;3.03;;;25.00;99.90;;;;;;5012594;28;20177;-73
2022/07/22 08:28:52;;;;;;;3.60;3.00;;;24.50;99.90;;;;;;5012933;28;20204;-73
2022/07/22 08:31:17;;;;;;;3.00;2.80;;;25.20;99.90;;;;;;5012594;28;20195;-73
2022/07/22 08:33:43;;;;;;;3.30;3.10;;;25.50;99.90;;;;;;5012879;28;20171;-73
2022/07/22 08:36:09;;;;;;;2.70;2.50;;;26.30;99.90;;;;;;5012710;28;20282;-73
2022/07/22 08:38:34;;;;;;;3.07;2.87;;;26.10;99.90;;;;;;5012865;28;20168;-74
2022/07/22 08:41:02;;;;;;;3.50;2.60;;;25.50;99.90;;;;;;5012525;28;20848;-74
2022/07/22 08:43:27;;;;;;;3.80;3.40;;;25.20;99.90;;;;;;5012684;28;20707;-74
2022/07/22 08:45:53;;;;;;;3.40;3.10;;;25.30;99.90;;;;;;5012764;28;20510;-74
2022/07/22 08:48:19;;;;;;;3.23;2.93;;;25.50;99.90;;;;;;5012980;28;20178;-74
2022/07/22 08:50:44;;;;;;;3.20;2.93;;;25.10;99.90;;;;;;5012486;28;20612;-73
2022/07/22 08:53:11;;;;;;;3.60;3.10;;;24.50;99.90;;;;;;5012599;28;20173;-74
2022/07/22 08:55:44;;;;;;;3.30;3.00;;;24.30;99.90;;;;;;5012482;28;20179;-74
2022/07/22 08:58:11;;;;;;;3.43;3.00;;;24.20;99.90;;;;;;5012421;28;20786;-74
2022/07/22 09:00:38;;;;;;;2.73;2.53;;;24.00;99.90;;;;;;5012237;28;20452;-74
2022/07/22 09:03:16;;;;;;;4.07;3.77;;;24.00;99.90;;;;;;5012302;28;20784;-74
2022/07/22 09:05:42;;;;;;;5.20;3.63;;;24.20;99.90;;;;;;5012734;28;20422;-74
2022/07/22 09:08:08;;;;;;;4.60;4.20;;;23.90;99.90;;;;;;5013101;28;20537;-74
2022/07/22 09:10:35;;;;;;;3.30;3.10;;;23.80;99.90;;;;;;5014816;28;20549;-74
2022/07/22 09:13:03;;;;;;;4.33;3.93;;;23.90;99.90;;;;;;5018318;28;20176;-74
2022/07/22 09:15:39;;;;;;;4.00;2.87;;;24.10;99.90;;;;;;5015557;28;20455;-75
2022/07/22 09:18:05;;;;;;;3.40;3.10;;;24.60;99.90;;;;;;5012317;28;20752;-74
2022/07/22 09:20:32;;;;;;;3.10;2.90;;;24.40;99.90;;;;;;5011043;28;20451;-74
2022/07/22 09:22:57;;;;;;;3.40;3.10;;;24.40;99.90;;;;;;5012331;28;20402;-74
2022/07/22 09:25:30;;;;;;;2.70;2.50;;;23.90;99.90;;;;;;5012122;28;20416;-74
2022/07/22 09:28:08;;;;;;;2.50;2.30;;;24.10;99.90;;;;;;5013155;28;20171;-74
2022/07/22 09:30:47;;;;;;;3.33;3.03;;;23.80;99.90;;;;;;5016179;28;20471;-74
2022/07/22 09:33:13;;;;;;;3.07;2.87;;;23.30;99.90;;;;;;5016582;28;20861;-74
2022/07/22 09:35:39;;;;;;;3.50;3.20;;;23.40;99.90;;;;;;5016572;28;20485;-74
2022/07/22 09:38:08;;;;;;;3.47;3.17;;;23.70;99.90;;;;;;5018640;28;20240;-73
2022/07/22 09:40:39;;;;;;;4.93;4.03;;;23.90;99.90;;;;;;5018525;28;20456;-74
2022/07/22 09:43:11;;;;;;;3.27;2.73;;;24.10;99.90;;;;;;5017234;28;20924;-74
2022/07/22 09:45:56;;;;;;;4.20;2.67;;;24.40;99.90;;;;;;5016581;28;20805;-74
2022/07/22 09:48:22;;;;;;;2.93;2.73;;;24.10;99.90;;;;;;5016449;28;20415;-74
2022/07/22 09:50:49;;;;;;;3.03;2.73;;;24.30;99.90;;;;;;5016446;28;21240;-74
2022/07/22 09:53:20;;;;;;;2.37;2.17;;;24.60;99.90;;;;;;5016602;28;20404;-76
2022/07/22 09:55:46;;;;;;;2.40;2.20;;;24.80;99.90;;;;;;5016192;28;20397;-74
2022/07/22 09:58:12;;;;;;;2.53;2.33;;;24.50;99.90;;;;;;5014774;28;20403;-75
2022/07/22 10:00:38;;;;;;;2.50;2.30;;;24.30;99.90;;;;;;5015959;28;20469;-74
2022/07/22 10:03:10;;;;;;;2.50;2.30;;;24.80;99.90;;;;;;5016283;28;20172;-75
2022/07/22 10:05:41;;;;;;;2.53;2.33;;;24.60;99.90;;;;;;5015906;28;20403;-75
2022/07/22 10:08:08;;;;;;;2.70;2.50;;;25.00;99.90;;;;;;5015665;28;20440;-74
2022/07/22 10:10:35;;;;;;;2.47;2.37;;;24.40;99.90;;;;;;5015310;28;20501;-74
2022/07/22 10:13:02;;;;;;;2.90;2.70;;;24.10;99.90;;;;;;5015396;28;20421;-74
2022/07/22 10:15:29;;;;;;;2.30;2.20;;;24.40;99.90;;;;;;5015309;28;20415;-74
2022/07/22 10:17:57;;;;;;;2.70;2.50;;;24.40;99.90;;;;;;5015538;28;20417;-74
2022/07/22 10:20:25;;;;;;;1.97;1.87;;;24.80;99.90;;;;;;5014051;28;20524;-74
2022/07/22 10:22:57;;;;;;;1.50;1.40;;;24.20;99.90;;;;;;5015446;28;20418;-74
2022/07/22 10:25:25;;;;;;;2.17;1.97;;;23.80;99.90;;;;;;5015179;28;20429;-74
2022/07/22 10:27:55;;;;;;;1.90;1.80;;;24.40;99.90;;;;;;5015204;28;20898;-74
2022/07/22 10:30:29;;;;;;;2.23;2.10;;;23.70;99.90;;;;;;5015228;28;20454;-74
2022/07/22 10:33:02;;;;;;;1.97;1.87;;;24.00;99.90;;;;;;5015667;28;20887;-75
2022/07/22 10:35:28;;;;;;;2.30;2.20;;;24.50;99.90;;;;;;5015448;28;20458;-75
2022/07/22 10:37:56;;;;;;;2.40;2.20;;;25.00;99.90;;;;;;5015393;28;20820;-74
2022/07/22 10:40:25;;;;;;;2.10;1.90;;;24.80;99.90;;;;;;5014376;28;20433;-74
2022/07/22 10:43:00;;;;;;;2.47;2.27;;;24.40;99.90;;;;;;5015616;28;20502;-75
2022/07/22 10:45:33;;;;;;;1.70;1.60;;;24.30;99.90;;;;;;5015139;28;20769;-73
2022/07/22 10:48:07;;;;;;;4.27;2.80;;;25.10;99.90;;;;;;5015231;28;20414;-75
2022/07/22 10:50:39;;;;;;;2.37;2.17;;;25.50;99.90;;;;;;5015251;28;20465;-76
2022/07/22 10:53:07;;;;;;;2.77;2.57;;;25.30;99.90;;;;;;5015591;28;20429;-75
2022/07/22 10:55:33;;;;;;;1.90;1.80;;;25.20;99.90;;;;;;5015925;28;20421;-74
2022/07/22 10:58:00;;;;;;;2.27;1.70;;;25.30;99.90;;;;;;5016480;28;20452;-75
2022/07/22 11:00:26;;;;;;;1.90;1.80;;;25.80;99.90;;;;;;5021128;28;20450;-75
2022/07/22 11:02:51;;;;;;;2.37;2.17;;;26.00;99.90;;;;;;5017579;28;20421;-76
2022/07/22 11:05:30;;;;;;;2.23;1.77;;;25.40;99.90;;;;;;5015548;28;20176;-75
2022/07/22 11:07:56;;;;;;;2.30;2.10;;;25.40;99.90;;;;;;5015792;28;20197;-74
2022/07/22 11:10:21;;;;;;;2.80;2.60;;;25.50;99.90;;;;;;5014899;28;20831;-75
2022/07/22 11:12:49;;;;;;;2.10;1.90;;;25.50;99.90;;;;;;5014755;28;20249;-74
2022/07/22 11:15:15;;;;;;;2.70;2.50;;;25.20;99.90;;;;;;5014991;28;20244;-74
2022/07/22 11:17:41;;;;;;;2.33;2.13;;;25.40;99.90;;;;;;5015366;28;20399;-74
2022/07/22 11:20:12;;;;;;;3.13;2.90;;;25.20;99.90;;;;;;5015571;28;20414;-73
2022/07/22 11:22:38;;;;;;;2.50;2.30;;;25.20;99.90;;;;;;5019832;28;20442;-73
2022/07/22 11:25:06;;;;;;;3.00;2.70;;;25.30;99.90;;;;;;5025238;28;20412;-74
2022/07/22 11:27:32;;;;;;;3.53;2.83;;;25.00;99.90;;;;;;5029741;28;20439;-73
2022/07/22 11:29:59;;;;;;;2.53;2.33;;;25.60;99.90;;;;;;5028817;28;20862;-72
2022/07/22 11:32:27;;;;;;;5.97;3.90;;;25.60;99.90;;;;;;5026701;28;20486;-74
2022/07/22 11:34:53;;;;;;;3.03;2.83;;;25.30;99.90;;;;;;5026182;28;20464;-73
2022/07/22 11:37:24;;;;;;;3.27;2.93;;;25.60;99.90;;;;;;5025598;28;20409;-73
2022/07/22 11:39:52;;;;;;;3.33;3.13;;;25.20;99.90;;;;;;5022252;28;20198;-73
2022/07/22 11:42:17;;;;;;;2.80;2.60;;;24.40;99.90;;;;;;5018420;28;20459;-72
2022/07/22 11:44:44;;;;;;;2.87;2.67;;;24.50;99.90;;;;;;5014080;28;20433;-73
2022/07/22 11:47:10;;;;;;;2.70;2.50;;;25.00;99.90;;;;;;5013892;28;20514;-72
2022/07/22 11:49:37;;;;;;;3.23;2.90;;;25.90;99.90;;;;;;5014012;28;20547;-72
2022/07/22 11:52:07;;;;;;;3.63;3.33;;;25.80;99.90;;;;;;5013363;28;20515;-73
2022/07/22 11:54:33;;;;;;;3.50;3.20;;;26.00;99.90;;;;;;5013886;28;20436;-73
2022/07/22 11:56:59;;;;;;;2.97;2.77;;;25.80;99.90;;;;;;5013891;28;20437;-73
2022/07/22 11:59:24;;;;;;;3.00;2.80;;;25.10;99.90;;;;;;5014654;28;20562;-73
2022/07/22 12:01:50;;;;;;;2.63;2.43;;;25.10;99.90;;;;;;5013434;28;20462;-73
2022/07/22 12:04:21;;;;;;;3.07;2.87;;;25.50;99.90;;;;;;5013581;28;20179;-73
2022/07/22 12:06:47;;;;;;;2.50;2.40;;;24.80;99.90;;;;;;5013488;28;20257;-73
2022/07/22 12:09:16;;;;;;;2.50;2.30;;;24.80;99.90;;;;;;5013682;28;20445;-73
2022/07/22 12:11:46;;;;;;;3.00;2.80;;;25.10;99.90;;;;;;5013356;28;20925;-73
2022/07/22 12:14:15;;;;;;;2.93;2.13;;;24.70;99.90;;;;;;5013070;28;20404;-73
2022/07/22 12:16:42;;;;;;;3.00;2.70;;;24.60;99.90;;;;;;5013226;28;20413;-73
2022/07/22 12:19:10;;;;;;;2.53;2.33;;;24.50;99.90;;;;;;5013417;28;20442;-73
2022/07/22 12:21:50;;;;;;;2.33;2.13;;;24.90;99.90;;;;;;5013069;28;20432;-73
2022/07/22 12:24:24;;;;;;;2.37;2.20;;;25.40;99.90;;;;;;5013261;28;20482;-73
2022/07/22 12:26:49;;;;;;;2.50;2.30;;;25.40;99.90;;;;;;5013404;28;20914;-73
2022/07/22 12:29:31;;;;;;;2.40;2.20;;;25.20;99.90;;;;;;5012965;28;20460;-73
2022/07/22 12:32:00;;;;;;;2.77;2.57;;;24.90;99.90;;;;;;5013469;28;20583;-73
2022/07/22 12:34:46;;;;;;;2.67;2.47;;;25.00;99.90;;;;;;5013260;28;20407;-73
2022/07/22 12:37:14;;;;;;;3.00;2.70;;;24.80;99.90;;;;;;5013075;28;20410;-73
2022/07/22 12:39:51;;;;;;;2.87;2.67;;;25.10;99.90;;;;;;5013416;28;20494;-73
2022/07/22 12:42:17;;;;;;;2.40;2.20;;;25.40;99.90;;;;;;5012936;28;20518;-73